sensor_id;sensor_type;location;lat;lon;timestamp;pressure;altitude;pressure_sealevel;temperature;humidity
70248;BME280;57641;51.416;5.506;2023-12-20T00:01:42;101777.19;;;10.30;71.74
70248;BME280;57641;51.416;5.506;2023-12-20T00:04:07;101781.78;;;10.28;71.29
70248;BME280;57641;51.416;5.506;2023-12-20T00:06:32;101788.19;;;9.93;72.89
70248;BME280;57641;51.416;5.506;2023-12-20T00:08:58;101780.19;;;10.04;71.42
70248;BME280;57641;51.416;5.506;2023-12-20T00:11:29;101782.88;;;9.93;71.93
70248;BME280;57641;51.416;5.506;2023-12-20T00:13:58;101789.19;;;9.81;72.09
70248;BME280;57641;51.416;5.506;2023-12-20T00:16:29;101796.94;;;10.27;70.21
70248;BME280;57641;51.416;5.506;2023-12-20T00:19:00;101800.38;;;10.07;71.08
70248;BME280;57641;51.416;5.506;2023-12-20T00:21:26;101801.81;;;10.11;69.92
70248;BME280;57641;51.416;5.506;2023-12-20T00:23:52;101797.44;;;9.78;70.81
70248;BME280;57641;51.416;5.506;2023-12-20T00:26:17;101799.03;;;9.69;71.18
70248;BME280;57641;51.416;5.506;2023-12-20T00:28:43;101805.22;;;9.48;70.92
70248;BME280;57641;51.416;5.506;2023-12-20T00:31:08;101801.69;;;9.69;71.13
70248;BME280;57641;51.416;5.506;2023-12-20T00:33:34;101797.66;;;9.86;71.48
70248;BME280;57641;51.416;5.506;2023-12-20T00:35:59;101793.78;;;9.79;70.60
70248;BME280;57641;51.416;5.506;2023-12-20T00:38:24;101793.75;;;9.90;69.70
70248;BME280;57641;51.416;5.506;2023-12-20T00:40:50;101798.41;;;9.77;70.12
70248;BME280;57641;51.416;5.506;2023-12-20T00:43:16;101790.34;;;9.99;69.87
70248;BME280;57641;51.416;5.506;2023-12-20T00:45:41;101785.94;;;9.78;69.97
70248;BME280;57641;51.416;5.506;2023-12-20T00:48:10;101787.47;;;9.91;70.12
70248;BME280;57641;51.416;5.506;2023-12-20T00:50:35;101783.88;;;9.81;69.71
70248;BME280;57641;51.416;5.506;2023-12-20T00:53:01;101781.72;;;9.64;70.84
70248;BME280;57641;51.416;5.506;2023-12-20T00:55:26;101785.06;;;9.34;70.23
70248;BME280;57641;51.416;5.506;2023-12-20T00:57:58;101784.03;;;9.57;70.79
70248;BME280;57641;51.416;5.506;2023-12-20T01:00:24;101777.16;;;9.44;70.62
70248;BME280;57641;51.416;5.506;2023-12-20T01:02:55;101778.56;;;9.70;70.10
70248;BME280;57641;51.416;5.506;2023-12-20T01:05:20;101781.69;;;9.75;70.27
70248;BME280;57641;51.416;5.506;2023-12-20T01:07:55;101786.06;;;9.76;70.00
70248;BME280;57641;51.416;5.506;2023-12-20T01:10:20;101783.06;;;9.69;69.56
70248;BME280;57641;51.416;5.506;2023-12-20T01:12:47;101794.91;;;9.77;68.87
70248;BME280;57641;51.416;5.506;2023-12-20T01:15:12;101793.00;;;9.67;69.80
70248;BME280;57641;51.416;5.506;2023-12-20T01:17:38;101794.13;;;9.97;68.51
70248;BME280;57641;51.416;5.506;2023-12-20T01:20:04;101791.34;;;9.98;68.92
70248;BME280;57641;51.416;5.506;2023-12-20T01:22:31;101798.56;;;10.07;68.53
70248;BME280;57641;51.416;5.506;2023-12-20T01:24:56;101802.41;;;9.71;68.72
70248;BME280;57641;51.416;5.506;2023-12-20T01:27:22;101809.38;;;9.84;68.88
70248;BME280;57641;51.416;5.506;2023-12-20T01:29:47;101796.13;;;9.72;69.17
70248;BME280;57641;51.416;5.506;2023-12-20T01:32:13;101793.03;;;9.34;69.94
70248;BME280;57641;51.416;5.506;2023-12-20T01:34:39;101794.16;;;9.74;69.60
70248;BME280;57641;51.416;5.506;2023-12-20T01:37:05;101792.53;;;9.94;68.91
70248;BME280;57641;51.416;5.506;2023-12-20T01:39:30;101790.91;;;9.71;68.89
70248;BME280;57641;51.416;5.506;2023-12-20T01:41:56;101796.66;;;9.98;69.30
70248;BME280;57641;51.416;5.506;2023-12-20T01:44:21;101797.22;;;9.59;70.09
70248;BME280;57641;51.416;5.506;2023-12-20T01:46:47;101803.31;;;9.50;70.53
70248;BME280;57641;51.416;5.506;2023-12-20T01:49:13;101795.09;;;9.30;70.85
70248;BME280;57641;51.416;5.506;2023-12-20T01:51:39;101807.19;;;9.57;69.50
70248;BME280;57641;51.416;5.506;2023-12-20T01:54:05;101802.72;;;9.46;70.42
70248;BME280;57641;51.416;5.506;2023-12-20T01:56:40;101805.13;;;9.49;71.24
70248;BME280;57641;51.416;5.506;2023-12-20T01:59:06;101805.91;;;9.83;70.03
70248;BME280;57641;51.416;5.506;2023-12-20T02:01:33;101791.19;;;9.57;70.00
70248;BME280;57641;51.416;5.506;2023-12-20T02:03:59;101787.56;;;9.47;70.67
70248;BME280;57641;51.416;5.506;2023-12-20T02:06:29;101796.38;;;9.58;70.11
70248;BME280;57641;51.416;5.506;2023-12-20T02:08:57;101789.88;;;9.94;69.73
70248;BME280;57641;51.416;5.506;2023-12-20T02:11:23;101795.78;;;9.66;70.28
70248;BME280;57641;51.416;5.506;2023-12-20T02:13:50;101802.50;;;9.81;69.69
70248;BME280;57641;51.416;5.506;2023-12-20T02:16:18;101793.22;;;9.64;70.26
70248;BME280;57641;51.416;5.506;2023-12-20T02:18:44;101793.69;;;9.69;69.55
70248;BME280;57641;51.416;5.506;2023-12-20T02:21:10;101797.63;;;9.43;70.10
70248;BME280;57641;51.416;5.506;2023-12-20T02:23:36;101798.56;;;9.53;70.87
70248;BME280;57641;51.416;5.506;2023-12-20T02:26:02;101792.88;;;9.47;70.15
70248;BME280;57641;51.416;5.506;2023-12-20T02:28:29;101788.78;;;9.31;70.80
70248;BME280;57641;51.416;5.506;2023-12-20T02:30:55;101786.81;;;9.78;70.39
70248;BME280;57641;51.416;5.506;2023-12-20T02:33:20;101786.28;;;9.73;69.79
70248;BME280;57641;51.416;5.506;2023-12-20T02:35:49;101790.97;;;9.92;68.72
70248;BME280;57641;51.416;5.506;2023-12-20T02:38:15;101785.38;;;9.95;68.74
70248;BME280;57641;51.416;5.506;2023-12-20T02:40:41;101787.56;;;10.01;69.27
70248;BME280;57641;51.416;5.506;2023-12-20T02:43:06;101803.50;;;9.69;69.56
70248;BME280;57641;51.416;5.506;2023-12-20T02:45:38;101792.44;;;9.19;70.36
70248;BME280;57641;51.416;5.506;2023-12-20T02:48:04;101806.47;;;9.21;70.82
70248;BME280;57641;51.416;5.506;2023-12-20T02:50:29;101805.22;;;9.59;70.38
70248;BME280;57641;51.416;5.506;2023-12-20T02:52:55;101801.84;;;9.57;69.29
70248;BME280;57641;51.416;5.506;2023-12-20T02:55:21;101800.84;;;9.69;69.67
70248;BME280;57641;51.416;5.506;2023-12-20T02:57:46;101791.88;;;9.70;69.13
70248;BME280;57641;51.416;5.506;2023-12-20T03:00:12;101799.88;;;9.70;69.54
70248;BME280;57641;51.416;5.506;2023-12-20T03:02:37;101804.22;;;9.82;69.39
70248;BME280;57641;51.416;5.506;2023-12-20T03:05:03;101796.28;;;9.26;70.41
70248;BME280;57641;51.416;5.506;2023-12-20T03:07:28;101798.38;;;9.23;70.93
70248;BME280;57641;51.416;5.506;2023-12-20T03:09:54;101790.00;;;9.50;70.01
70248;BME280;57641;51.416;5.506;2023-12-20T03:12:19;101788.03;;;9.52;70.15
70248;BME280;57641;51.416;5.506;2023-12-20T03:14:45;101780.31;;;9.15;71.28
70248;BME280;57641;51.416;5.506;2023-12-20T03:17:16;101782.97;;;9.49;69.99
70248;BME280;57641;51.416;5.506;2023-12-20T03:19:42;101784.41;;;9.53;70.38
70248;BME280;57641;51.416;5.506;2023-12-20T03:22:07;101778.50;;;9.27;70.94
70248;BME280;57641;51.416;5.506;2023-12-20T03:24:33;101782.97;;;9.49;69.66
70248;BME280;57641;51.416;5.506;2023-12-20T03:26:58;101782.03;;;9.39;69.62
70248;BME280;57641;51.416;5.506;2023-12-20T03:29:23;101781.75;;;9.42;70.18
70248;BME280;57641;51.416;5.506;2023-12-20T03:31:49;101785.16;;;9.44;70.43
70248;BME280;57641;51.416;5.506;2023-12-20T03:34:15;101783.22;;;9.46;69.88
70248;BME280;57641;51.416;5.506;2023-12-20T03:36:41;101782.13;;;9.48;69.57
70248;BME280;57641;51.416;5.506;2023-12-20T03:39:06;101781.53;;;9.33;70.35
70248;BME280;57641;51.416;5.506;2023-12-20T03:41:32;101786.13;;;9.43;69.91
70248;BME280;57641;51.416;5.506;2023-12-20T03:43:58;101778.28;;;9.30;70.26
70248;BME280;57641;51.416;5.506;2023-12-20T03:46:29;101777.53;;;9.39;70.33
70248;BME280;57641;51.416;5.506;2023-12-20T03:48:54;101773.03;;;9.62;69.06
70248;BME280;57641;51.416;5.506;2023-12-20T03:51:20;101764.03;;;9.20;70.92
70248;BME280;57641;51.416;5.506;2023-12-20T03:53:45;101757.38;;;8.92;71.45
70248;BME280;57641;51.416;5.506;2023-12-20T03:56:10;101747.81;;;9.01;71.62
70248;BME280;57641;51.416;5.506;2023-12-20T03:58:36;101755.09;;;8.87;73.13
70248;BME280;57641;51.416;5.506;2023-12-20T04:01:01;101755.19;;;8.75;72.51
70248;BME280;57641;51.416;5.506;2023-12-20T04:03:27;101761.97;;;9.01;71.79
70248;BME280;57641;51.416;5.506;2023-12-20T04:05:55;101760.03;;;8.92;72.13
70248;BME280;57641;51.416;5.506;2023-12-20T04:08:21;101768.47;;;8.75;73.30
70248;BME280;57641;51.416;5.506;2023-12-20T04:10:46;101780.44;;;8.69;73.48
70248;BME280;57641;51.416;5.506;2023-12-20T04:13:11;101778.88;;;8.67;74.06
70248;BME280;57641;51.416;5.506;2023-12-20T04:15:37;101779.47;;;9.26;72.25
70248;BME280;57641;51.416;5.506;2023-12-20T04:18:02;101783.84;;;9.05;71.94
70248;BME280;57641;51.416;5.506;2023-12-20T04:20:28;101788.81;;;8.98;72.49
70248;BME280;57641;51.416;5.506;2023-12-20T04:22:53;101785.41;;;8.96;73.14
70248;BME280;57641;51.416;5.506;2023-12-20T04:25:19;101780.09;;;9.29;71.70
70248;BME280;57641;51.416;5.506;2023-12-20T04:27:44;101775.38;;;9.44;71.45
70248;BME280;57641;51.416;5.506;2023-12-20T04:30:10;101775.13;;;9.36;72.26
70248;BME280;57641;51.416;5.506;2023-12-20T04:32:35;101778.97;;;9.54;70.57
70248;BME280;57641;51.416;5.506;2023-12-20T04:35:01;101780.78;;;9.43;72.33
70248;BME280;57641;51.416;5.506;2023-12-20T04:37:26;101785.53;;;9.50;70.98
70248;BME280;57641;51.416;5.506;2023-12-20T04:39:52;101779.34;;;9.50;71.57
70248;BME280;57641;51.416;5.506;2023-12-20T04:42:17;101772.22;;;8.83;73.58
70248;BME280;57641;51.416;5.506;2023-12-20T04:44:42;101769.09;;;9.12;72.81
70248;BME280;57641;51.416;5.506;2023-12-20T04:47:09;101771.63;;;9.36;72.05
70248;BME280;57641;51.416;5.506;2023-12-20T04:49:34;101777.66;;;9.15;72.62
70248;BME280;57641;51.416;5.506;2023-12-20T04:52:03;101776.81;;;9.15;72.66
70248;BME280;57641;51.416;5.506;2023-12-20T04:54:28;101779.84;;;9.44;71.67
70248;BME280;57641;51.416;5.506;2023-12-20T04:56:54;101774.16;;;9.15;72.04
70248;BME280;57641;51.416;5.506;2023-12-20T04:59:28;101759.13;;;9.47;71.54
70248;BME280;57641;51.416;5.506;2023-12-20T05:01:54;101770.91;;;9.33;71.54
70248;BME280;57641;51.416;5.506;2023-12-20T05:04:29;101780.22;;;9.39;71.47
70248;BME280;57641;51.416;5.506;2023-12-20T05:06:54;101776.59;;;9.29;71.95
70248;BME280;57641;51.416;5.506;2023-12-20T05:09:19;101765.91;;;9.51;71.16
70248;BME280;57641;51.416;5.506;2023-12-20T05:11:45;101772.50;;;9.03;73.71
70248;BME280;57641;51.416;5.506;2023-12-20T05:14:10;101761.22;;;9.21;72.28
70248;BME280;57641;51.416;5.506;2023-12-20T05:16:35;101749.88;;;8.97;72.91
70248;BME280;57641;51.416;5.506;2023-12-20T05:19:01;101754.72;;;9.03;72.47
70248;BME280;57641;51.416;5.506;2023-12-20T05:21:31;101758.72;;;9.09;72.48
70248;BME280;57641;51.416;5.506;2023-12-20T05:23:57;101755.69;;;9.24;71.63
70248;BME280;57641;51.416;5.506;2023-12-20T05:26:22;101757.22;;;9.38;72.17
70248;BME280;57641;51.416;5.506;2023-12-20T05:28:48;101763.59;;;9.47;71.10
70248;BME280;57641;51.416;5.506;2023-12-20T05:31:13;101749.72;;;9.32;71.13
70248;BME280;57641;51.416;5.506;2023-12-20T05:33:39;101756.66;;;9.78;70.39
70248;BME280;57641;51.416;5.506;2023-12-20T05:36:04;101755.09;;;9.64;71.29
70248;BME280;57641;51.416;5.506;2023-12-20T05:38:30;101747.38;;;9.61;71.26
70248;BME280;57641;51.416;5.506;2023-12-20T05:40:56;101758.25;;;9.58;70.91
70248;BME280;57641;51.416;5.506;2023-12-20T05:43:27;101750.19;;;9.91;69.94
70248;BME280;57641;51.416;5.506;2023-12-20T05:45:53;101760.00;;;9.25;72.04
70248;BME280;57641;51.416;5.506;2023-12-20T05:48:18;101763.00;;;9.54;71.34
70248;BME280;57641;51.416;5.506;2023-12-20T05:50:44;101758.22;;;9.69;70.43
70248;BME280;57641;51.416;5.506;2023-12-20T05:53:09;101761.69;;;9.26;72.12
70248;BME280;57641;51.416;5.506;2023-12-20T05:55:34;101771.88;;;9.10;72.42
70248;BME280;57641;51.416;5.506;2023-12-20T05:58:00;101770.78;;;9.13;72.50
70248;BME280;57641;51.416;5.506;2023-12-20T06:00:25;101765.22;;;9.27;73.14
70248;BME280;57641;51.416;5.506;2023-12-20T06:02:51;101773.94;;;9.29;72.56
70248;BME280;57641;51.416;5.506;2023-12-20T06:05:16;101762.31;;;9.30;72.19
70248;BME280;57641;51.416;5.506;2023-12-20T06:07:41;101761.09;;;9.34;72.03
70248;BME280;57641;51.416;5.506;2023-12-20T06:10:07;101765.63;;;9.65;70.59
70248;BME280;57641;51.416;5.506;2023-12-20T06:12:36;101779.81;;;9.55;70.58
70248;BME280;57641;51.416;5.506;2023-12-20T06:15:09;101782.72;;;9.52;70.78
70248;BME280;57641;51.416;5.506;2023-12-20T06:17:38;101771.38;;;9.39;71.27
70248;BME280;57641;51.416;5.506;2023-12-20T06:20:04;101777.06;;;9.12;71.71
70248;BME280;57641;51.416;5.506;2023-12-20T06:22:34;101781.44;;;9.13;72.09
70248;BME280;57641;51.416;5.506;2023-12-20T06:24:59;101771.13;;;9.42;71.22
70248;BME280;57641;51.416;5.506;2023-12-20T06:27:25;101786.00;;;8.88;72.35
70248;BME280;57641;51.416;5.506;2023-12-20T06:29:51;101783.72;;;9.17;71.34
70248;BME280;57641;51.416;5.506;2023-12-20T06:32:17;101786.50;;;9.05;71.68
70248;BME280;57641;51.416;5.506;2023-12-20T06:34:42;101776.81;;;9.26;71.18
70248;BME280;57641;51.416;5.506;2023-12-20T06:37:08;101773.44;;;9.02;71.61
70248;BME280;57641;51.416;5.506;2023-12-20T06:39:33;101785.53;;;9.28;71.31
70248;BME280;57641;51.416;5.506;2023-12-20T06:41:59;101789.50;;;8.89;71.10
70248;BME280;57641;51.416;5.506;2023-12-20T06:44:25;101786.47;;;8.94;71.28
70248;BME280;57641;51.416;5.506;2023-12-20T06:46:57;101783.84;;;9.27;70.92
70248;BME280;57641;51.416;5.506;2023-12-20T06:49:23;101782.53;;;8.88;71.89
70248;BME280;57641;51.416;5.506;2023-12-20T06:51:48;101766.44;;;8.89;71.55
70248;BME280;57641;51.416;5.506;2023-12-20T06:54:14;101780.09;;;8.96;70.68
70248;BME280;57641;51.416;5.506;2023-12-20T06:56:42;101783.72;;;8.95;70.88
70248;BME280;57641;51.416;5.506;2023-12-20T06:59:08;101778.66;;;9.14;70.70
70248;BME280;57641;51.416;5.506;2023-12-20T07:01:33;101774.53;;;9.10;71.19
70248;BME280;57641;51.416;5.506;2023-12-20T07:03:59;101777.53;;;8.95;71.95
70248;BME280;57641;51.416;5.506;2023-12-20T07:06:24;101775.25;;;9.23;70.71
70248;BME280;57641;51.416;5.506;2023-12-20T07:08:55;101769.94;;;9.23;70.24
70248;BME280;57641;51.416;5.506;2023-12-20T07:11:20;101773.19;;;9.27;70.94
70248;BME280;57641;51.416;5.506;2023-12-20T07:13:46;101765.59;;;9.22;70.25
70248;BME280;57641;51.416;5.506;2023-12-20T07:16:12;101766.41;;;8.67;71.93
70248;BME280;57641;51.416;5.506;2023-12-20T07:18:38;101765.31;;;8.70;72.08
70248;BME280;57641;51.416;5.506;2023-12-20T07:21:04;101760.25;;;9.00;70.23
70248;BME280;57641;51.416;5.506;2023-12-20T07:23:29;101756.28;;;8.72;71.13
70248;BME280;57641;51.416;5.506;2023-12-20T07:25:54;101769.06;;;8.78;71.26
70248;BME280;57641;51.416;5.506;2023-12-20T07:28:20;101763.50;;;8.59;72.07
70248;BME280;57641;51.416;5.506;2023-12-20T07:30:46;101763.28;;;8.84;70.97
70248;BME280;57641;51.416;5.506;2023-12-20T07:33:14;101765.22;;;8.94;71.73
70248;BME280;57641;51.416;5.506;2023-12-20T07:35:40;101776.84;;;8.93;70.92
70248;BME280;57641;51.416;5.506;2023-12-20T07:38:05;101775.75;;;8.95;71.51
70248;BME280;57641;51.416;5.506;2023-12-20T07:40:31;101773.72;;;8.99;71.56
70248;BME280;57641;51.416;5.506;2023-12-20T07:42:57;101782.97;;;9.04;70.61
70248;BME280;57641;51.416;5.506;2023-12-20T07:45:23;101786.38;;;8.84;71.69
70248;BME280;57641;51.416;5.506;2023-12-20T07:47:52;101774.31;;;9.02;71.46
70248;BME280;57641;51.416;5.506;2023-12-20T07:50:19;101771.88;;;8.99;71.37
70248;BME280;57641;51.416;5.506;2023-12-20T07:52:44;101773.06;;;8.95;70.87
70248;BME280;57641;51.416;5.506;2023-12-20T07:55:09;101775.50;;;8.87;71.89
70248;BME280;57641;51.416;5.506;2023-12-20T07:57:38;101772.38;;;8.93;71.01
70248;BME280;57641;51.416;5.506;2023-12-20T08:00:04;101782.03;;;9.27;69.90
70248;BME280;57641;51.416;5.506;2023-12-20T08:02:30;101774.66;;;9.09;70.77
70248;BME280;57641;51.416;5.506;2023-12-20T08:04:56;101780.94;;;8.85;72.28
70248;BME280;57641;51.416;5.506;2023-12-20T08:07:21;101786.16;;;8.98;71.00
70248;BME280;57641;51.416;5.506;2023-12-20T08:09:47;101774.03;;;9.05;71.70
70248;BME280;57641;51.416;5.506;2023-12-20T08:12:25;101787.25;;;9.18;71.38
70248;BME280;57641;51.416;5.506;2023-12-20T08:14:54;101777.69;;;8.82;71.63
70248;BME280;57641;51.416;5.506;2023-12-20T08:17:20;101780.94;;;8.97;71.94
70248;BME280;57641;51.416;5.506;2023-12-20T08:19:51;101789.91;;;9.18;71.49
70248;BME280;57641;51.416;5.506;2023-12-20T08:22:20;101785.78;;;9.25;71.14
70248;BME280;57641;51.416;5.506;2023-12-20T08:24:45;101783.84;;;9.16;71.30
70248;BME280;57641;51.416;5.506;2023-12-20T08:27:11;101798.69;;;8.85;71.96
70248;BME280;57641;51.416;5.506;2023-12-20T08:29:36;101792.44;;;8.97;72.74
70248;BME280;57641;51.416;5.506;2023-12-20T08:32:02;101799.81;;;8.82;72.67
70248;BME280;57641;51.416;5.506;2023-12-20T08:34:27;101802.31;;;8.84;72.25
70248;BME280;57641;51.416;5.506;2023-12-20T08:36:53;101791.47;;;9.09;71.97
70248;BME280;57641;51.416;5.506;2023-12-20T08:39:19;101796.16;;;8.72;72.46
70248;BME280;57641;51.416;5.506;2023-12-20T08:41:59;101799.66;;;8.62;72.47
70248;BME280;57641;51.416;5.506;2023-12-20T08:44:27;101803.75;;;8.66;73.29
70248;BME280;57641;51.416;5.506;2023-12-20T08:47:16;101797.22;;;8.70;72.80
70248;BME280;57641;51.416;5.506;2023-12-20T08:49:42;101791.22;;;8.90;72.32
70248;BME280;57641;51.416;5.506;2023-12-20T08:52:08;101794.34;;;8.84;72.24
70248;BME280;57641;51.416;5.506;2023-12-20T08:54:37;101782.03;;;8.72;71.80
70248;BME280;57641;51.416;5.506;2023-12-20T08:57:04;101781.16;;;8.71;72.33
70248;BME280;57641;51.416;5.506;2023-12-20T08:59:37;101773.19;;;8.71;72.73
70248;BME280;57641;51.416;5.506;2023-12-20T09:02:09;101770.56;;;8.82;72.26
70248;BME280;57641;51.416;5.506;2023-12-20T09:04:34;101769.31;;;8.75;72.98
70248;BME280;57641;51.416;5.506;2023-12-20T09:07:00;101775.94;;;8.59;72.51
70248;BME280;57641;51.416;5.506;2023-12-20T09:09:26;101763.03;;;9.10;72.08
70248;BME280;57641;51.416;5.506;2023-12-20T09:11:55;101765.34;;;9.14;71.31
70248;BME280;57641;51.416;5.506;2023-12-20T09:14:21;101765.56;;;8.89;71.29
70248;BME280;57641;51.416;5.506;2023-12-20T09:16:46;101760.50;;;8.86;71.36
70248;BME280;57641;51.416;5.506;2023-12-20T09:19:12;101768.72;;;9.16;71.49
70248;BME280;57641;51.416;5.506;2023-12-20T09:21:37;101774.78;;;9.18;71.16
70248;BME280;57641;51.416;5.506;2023-12-20T09:24:03;101771.28;;;9.18;70.78
70248;BME280;57641;51.416;5.506;2023-12-20T09:26:34;101766.31;;;9.13;71.50
70248;BME280;57641;51.416;5.506;2023-12-20T09:29:00;101785.66;;;9.15;71.05
70248;BME280;57641;51.416;5.506;2023-12-20T09:31:28;101781.19;;;9.16;71.37
70248;BME280;57641;51.416;5.506;2023-12-20T09:33:54;101785.66;;;9.15;71.82
70248;BME280;57641;51.416;5.506;2023-12-20T09:36:19;101783.84;;;9.38;70.80
70248;BME280;57641;51.416;5.506;2023-12-20T09:38:44;101774.53;;;9.21;71.32
70248;BME280;57641;51.416;5.506;2023-12-20T09:41:10;101784.09;;;8.90;71.31
70248;BME280;57641;51.416;5.506;2023-12-20T09:43:48;101773.34;;;8.92;71.54
70248;BME280;57641;51.416;5.506;2023-12-20T09:46:15;101775.63;;;8.85;72.32
70248;BME280;57641;51.416;5.506;2023-12-20T09:48:46;101778.19;;;8.98;72.36
70248;BME280;57641;51.416;5.506;2023-12-20T09:51:12;101758.94;;;9.06;73.11
70248;BME280;57641;51.416;5.506;2023-12-20T09:53:38;101769.69;;;9.15;70.88
70248;BME280;57641;51.416;5.506;2023-12-20T09:56:06;101778.28;;;9.30;70.45
70248;BME280;57641;51.416;5.506;2023-12-20T09:58:32;101761.59;;;9.28;70.89
70248;BME280;57641;51.416;5.506;2023-12-20T10:00:57;101769.16;;;9.55;70.26
70248;BME280;57641;51.416;5.506;2023-12-20T10:03:25;101774.88;;;9.39;70.36
70248;BME280;57641;51.416;5.506;2023-12-20T10:05:54;101762.44;;;9.40;70.85
70248;BME280;57641;51.416;5.506;2023-12-20T10:08:22;101761.97;;;9.01;71.49
70248;BME280;57641;51.416;5.506;2023-12-20T10:10:48;101756.75;;;9.00;73.15
70248;BME280;57641;51.416;5.506;2023-12-20T10:13:15;101761.31;;;9.53;70.57
70248;BME280;57641;51.416;5.506;2023-12-20T10:15:43;101762.91;;;9.22;71.36
70248;BME280;57641;51.416;5.506;2023-12-20T10:18:08;101749.34;;;9.25;71.37
70248;BME280;57641;51.416;5.506;2023-12-20T10:20:37;101754.56;;;9.38;71.17
70248;BME280;57641;51.416;5.506;2023-12-20T10:23:03;101751.53;;;9.31;71.03
70248;BME280;57641;51.416;5.506;2023-12-20T10:25:29;101756.91;;;9.09;71.77
70248;BME280;57641;51.416;5.506;2023-12-20T10:28:14;101750.69;;;9.31;71.42
70248;BME280;57641;51.416;5.506;2023-12-20T10:30:42;101754.34;;;9.30;71.56
70248;BME280;57641;51.416;5.506;2023-12-20T10:33:11;101769.78;;;9.36;71.34
70248;BME280;57641;51.416;5.506;2023-12-20T10:35:38;101775.09;;;9.47;70.98
70248;BME280;57641;51.416;5.506;2023-12-20T10:38:08;101764.91;;;9.63;70.73
70248;BME280;57641;51.416;5.506;2023-12-20T10:40:36;101769.56;;;9.39;69.98
70248;BME280;57641;51.416;5.506;2023-12-20T10:43:09;101774.69;;;9.74;70.45
70248;BME280;57641;51.416;5.506;2023-12-20T10:45:41;101759.13;;;9.47;71.28
70248;BME280;57641;51.416;5.506;2023-12-20T10:48:07;101747.50;;;9.59;70.65
70248;BME280;57641;51.416;5.506;2023-12-20T10:50:36;101741.66;;;9.77;70.33
70248;BME280;57641;51.416;5.506;2023-12-20T10:53:08;101737.22;;;9.55;70.67
70248;BME280;57641;51.416;5.506;2023-12-20T10:55:33;101735.78;;;9.51;71.40
70248;BME280;57641;51.416;5.506;2023-12-20T10:58:08;101744.16;;;9.46;71.61
70248;BME280;57641;51.416;5.506;2023-12-20T11:00:40;101743.34;;;9.12;72.60
70248;BME280;57641;51.416;5.506;2023-12-20T11:03:08;101736.41;;;9.43;72.77
70248;BME280;57641;51.416;5.506;2023-12-20T11:05:52;101745.50;;;9.41;72.72
70248;BME280;57641;51.416;5.506;2023-12-20T11:11:32;101737.09;;;9.56;72.42
70248;BME280;57641;51.416;5.506;2023-12-20T11:14:14;101729.13;;;9.56;72.15
70248;BME280;57641;51.416;5.506;2023-12-20T11:16:42;101736.47;;;9.64;72.22
70248;BME280;57641;51.416;5.506;2023-12-20T11:19:11;101727.91;;;9.92;71.73
70248;BME280;57641;51.416;5.506;2023-12-20T11:21:48;101721.03;;;9.79;71.62
70248;BME280;57641;51.416;5.506;2023-12-20T11:24:22;101719.94;;;9.49;72.80
70248;BME280;57641;51.416;5.506;2023-12-20T11:26:55;101727.44;;;9.55;72.84
70248;BME280;57641;51.416;5.506;2023-12-20T11:29:36;101707.06;;;9.65;72.90
70248;BME280;57641;51.416;5.506;2023-12-20T11:32:03;101706.25;;;9.86;71.83
70248;BME280;57641;51.416;5.506;2023-12-20T11:34:33;101701.44;;;10.00;71.89
70248;BME280;57641;51.416;5.506;2023-12-20T11:37:02;101700.59;;;9.79;72.06
70248;BME280;57641;51.416;5.506;2023-12-20T11:39:28;101705.31;;;9.75;73.11
70248;BME280;57641;51.416;5.506;2023-12-20T11:41:56;101686.97;;;9.72;74.03
70248;BME280;57641;51.416;5.506;2023-12-20T11:44:24;101695.25;;;9.79;74.02
70248;BME280;57641;51.416;5.506;2023-12-20T11:46:50;101696.59;;;9.73;73.76
70248;BME280;57641;51.416;5.506;2023-12-20T11:49:16;101700.03;;;9.64;73.82
70248;BME280;57641;51.416;5.506;2023-12-20T11:51:42;101696.19;;;9.57;74.20
70248;BME280;57641;51.416;5.506;2023-12-20T11:54:09;101690.50;;;9.62;73.30
70248;BME280;57641;51.416;5.506;2023-12-20T11:56:36;101694.47;;;9.36;75.66
70248;BME280;57641;51.416;5.506;2023-12-20T11:59:02;101692.47;;;9.49;74.42
70248;BME280;57641;51.416;5.506;2023-12-20T12:01:28;101689.84;;;9.69;74.51
70248;BME280;57641;51.416;5.506;2023-12-20T12:04:04;101683.28;;;9.73;73.97
70248;BME280;57641;51.416;5.506;2023-12-20T12:06:29;101683.16;;;9.43;74.82
70248;BME280;57641;51.416;5.506;2023-12-20T12:09:04;101671.09;;;9.71;74.58
70248;BME280;57641;51.416;5.506;2023-12-20T12:11:30;101667.09;;;9.97;73.90
70248;BME280;57641;51.416;5.506;2023-12-20T12:13:56;101664.59;;;9.64;74.66
70248;BME280;57641;51.416;5.506;2023-12-20T12:16:25;101660.66;;;9.47;74.94
70248;BME280;57641;51.416;5.506;2023-12-20T12:18:57;101644.41;;;9.82;74.88
70248;BME280;57641;51.416;5.506;2023-12-20T12:21:26;101641.97;;;9.26;76.36
70248;BME280;57641;51.416;5.506;2023-12-20T12:23:52;101648.50;;;9.22;76.20
70248;BME280;57641;51.416;5.506;2023-12-20T12:26:29;101647.91;;;9.30;76.05
70248;BME280;57641;51.416;5.506;2023-12-20T12:28:59;101663.13;;;9.28;76.03
70248;BME280;57641;51.416;5.506;2023-12-20T12:31:28;101655.34;;;9.36;75.19
70248;BME280;57641;51.416;5.506;2023-12-20T12:33:56;101654.91;;;9.63;74.88
70248;BME280;57641;51.416;5.506;2023-12-20T12:36:22;101662.81;;;9.53;75.68
70248;BME280;57641;51.416;5.506;2023-12-20T12:38:48;101663.22;;;9.69;75.24
70248;BME280;57641;51.416;5.506;2023-12-20T12:41:13;101660.41;;;9.50;74.72
70248;BME280;57641;51.416;5.506;2023-12-20T12:43:43;101651.59;;;9.70;75.39
70248;BME280;57641;51.416;5.506;2023-12-20T12:46:09;101670.78;;;9.53;75.62
70248;BME280;57641;51.416;5.506;2023-12-20T12:48:35;101642.75;;;9.49;75.97
70248;BME280;57641;51.416;5.506;2023-12-20T12:51:01;101631.16;;;9.92;74.29
70248;BME280;57641;51.416;5.506;2023-12-20T12:53:27;101624.25;;;10.10;73.90
70248;BME280;57641;51.416;5.506;2023-12-20T12:55:53;101637.94;;;10.16;73.69
70248;BME280;57641;51.416;5.506;2023-12-20T12:58:22;101635.75;;;9.90;74.60
70248;BME280;57641;51.416;5.506;2023-12-20T13:00:51;101628.03;;;9.87;74.06
70248;BME280;57641;51.416;5.506;2023-12-20T13:03:22;101624.25;;;9.89;73.87